sensor_id;sensor_type;location;lat;lon;timestamp;pressure;altitude;pressure_sealevel;temperature;humidity
54172;BME280;40076;52.354;4.970;2023-05-07T00:01:37;101673.53;;;16.22;100.00
54172;BME280;40076;52.354;4.970;2023-05-07T00:04:05;101682.38;;;16.19;100.00
54172;BME280;40076;52.354;4.970;2023-05-07T00:06:32;101678.84;;;16.18;100.00
54172;BME280;40076;52.354;4.970;2023-05-07T00:09:01;101678.41;;;16.16;100.00
54172;BME280;40076;52.354;4.970;2023-05-07T00:11:29;101685.78;;;16.16;100.00
54172;BME280;40076;52.354;4.970;2023-05-07T00:14:05;101688.84;;;16.14;100.00
54172;BME280;40076;52.354;4.970;2023-05-07T00:16:38;101685.00;;;16.15;100.00
54172;BME280;40076;52.354;4.970;2023-05-07T00:19:23;101679.72;;;16.10;100.00
54172;BME280;40076;52.354;4.970;2023-05-07T00:22:09;101674.63;;;16.09;100.00
54172;BME280;40076;52.354;4.970;2023-05-07T00:27:48;101683.47;;;16.06;100.00
54172;BME280;40076;52.354;4.970;2023-05-07T00:30:14;101679.13;;;16.05;100.00
54172;BME280;40076;52.354;4.970;2023-05-07T00:33:05;101689.56;;;16.03;100.00
54172;BME280;40076;52.354;4.970;2023-05-07T00:35:49;101678.22;;;16.01;100.00
54172;BME280;40076;52.354;4.970;2023-05-07T00:38:33;101686.41;;;16.01;100.00
54172;BME280;40076;52.354;4.970;2023-05-07T00:41:06;101682.88;;;16.00;100.00
54172;BME280;40076;52.354;4.970;2023-05-07T00:43:34;101675.84;;;15.99;100.00
54172;BME280;40076;52.354;4.970;2023-05-07T00:46:03;101675.38;;;15.97;100.00
54172;BME280;40076;52.354;4.970;2023-05-07T00:48:33;101681.13;;;15.96;100.00
54172;BME280;40076;52.354;4.970;2023-05-07T00:51:07;101667.41;;;15.92;100.00
54172;BME280;40076;52.354;4.970;2023-05-07T00:53:43;101667.25;;;15.89;100.00
54172;BME280;40076;52.354;4.970;2023-05-07T00:56:08;101667.59;;;15.87;100.00
54172;BME280;40076;52.354;4.970;2023-05-07T00:58:47;101671.91;;;15.88;100.00
54172;BME280;40076;52.354;4.970;2023-05-07T01:01:18;101672.72;;;15.89;100.00
54172;BME280;40076;52.354;4.970;2023-05-07T01:03:44;101676.44;;;15.84;100.00
54172;BME280;40076;52.354;4.970;2023-05-07T01:06:13;101673.72;;;15.84;100.00
54172;BME280;40076;52.354;4.970;2023-05-07T01:08:45;101675.97;;;15.82;100.00
54172;BME280;40076;52.354;4.970;2023-05-07T01:11:14;101678.69;;;15.82;100.00
54172;BME280;40076;52.354;4.970;2023-05-07T01:13:47;101673.56;;;15.80;100.00
54172;BME280;40076;52.354;4.970;2023-05-07T01:16:21;101674.69;;;15.79;100.00
54172;BME280;40076;52.354;4.970;2023-05-07T01:18:49;101675.84;;;15.78;100.00
54172;BME280;40076;52.354;4.970;2023-05-07T01:21:18;101675.06;;;15.78;100.00
54172;BME280;40076;52.354;4.970;2023-05-07T01:23:54;101666.88;;;15.78;100.00
54172;BME280;40076;52.354;4.970;2023-05-07T01:26:25;101671.22;;;15.79;100.00
54172;BME280;40076;52.354;4.970;2023-05-07T01:28:55;101666.88;;;15.78;100.00
54172;BME280;40076;52.354;4.970;2023-05-07T01:31:24;101668.00;;;15.77;100.00
54172;BME280;40076;52.354;4.970;2023-05-07T01:33:59;101674.59;;;15.76;100.00
54172;BME280;40076;52.354;4.970;2023-05-07T01:36:29;101676.19;;;15.77;100.00
54172;BME280;40076;52.354;4.970;2023-05-07T01:38:55;101672.66;;;15.76;100.00
54172;BME280;40076;52.354;4.970;2023-05-07T01:41:25;101671.06;;;15.75;100.00
54172;BME280;40076;52.354;4.970;2023-05-07T01:43:54;101671.88;;;15.76;100.00
54172;BME280;40076;52.354;4.970;2023-05-07T01:46:21;101664.50;;;15.76;100.00
54172;BME280;40076;52.354;4.970;2023-05-07T01:48:47;101673.00;;;15.75;100.00
54172;BME280;40076;52.354;4.970;2023-05-07T01:51:15;101664.81;;;15.75;100.00
54172;BME280;40076;52.354;4.970;2023-05-07T01:53:41;101659.38;;;15.75;100.00
54172;BME280;40076;52.354;4.970;2023-05-07T01:56:10;101665.16;;;15.73;100.00
54172;BME280;40076;52.354;4.970;2023-05-07T01:58:42;101657.66;;;15.70;100.00
54172;BME280;40076;52.354;4.970;2023-05-07T02:01:07;101668.19;;;15.72;100.00
54172;BME280;40076;52.354;4.970;2023-05-07T02:03:33;101665.16;;;15.73;100.00
54172;BME280;40076;52.354;4.970;2023-05-07T02:06:04;101668.66;;;15.74;100.00
54172;BME280;40076;52.354;4.970;2023-05-07T02:08:29;101671.06;;;15.75;100.00
54172;BME280;40076;52.354;4.970;2023-05-07T02:11:00;101667.53;;;15.75;100.00
54172;BME280;40076;52.354;4.970;2023-05-07T02:13:38;101664.00;;;15.74;100.00
54172;BME280;40076;52.354;4.970;2023-05-07T02:16:04;101665.63;;;15.75;100.00
54172;BME280;40076;52.354;4.970;2023-05-07T02:18:29;101666.41;;;15.76;100.00
54172;BME280;40076;52.354;4.970;2023-05-07T02:20:55;101655.84;;;15.74;100.00
54172;BME280;40076;52.354;4.970;2023-05-07T02:23:21;101660.03;;;15.72;100.00
54172;BME280;40076;52.354;4.970;2023-05-07T02:25:51;101656.84;;;15.70;100.00
54172;BME280;40076;52.354;4.970;2023-05-07T02:28:16;101658.78;;;15.69;100.00
54172;BME280;40076;52.354;4.970;2023-05-07T02:30:42;101659.91;;;15.68;100.00
54172;BME280;40076;52.354;4.970;2023-05-07T02:33:15;101664.56;;;15.68;100.00
54172;BME280;40076;52.354;4.970;2023-05-07T02:35:41;101659.09;;;15.68;100.00
54172;BME280;40076;52.354;4.970;2023-05-07T02:38:07;101650.47;;;15.66;100.00
54172;BME280;40076;52.354;4.970;2023-05-07T02:40:36;101662.47;;;15.65;100.00
54172;BME280;40076;52.354;4.970;2023-05-07T02:43:04;101667.94;;;15.65;100.00
54172;BME280;40076;52.354;4.970;2023-05-07T02:45:32;101664.41;;;15.64;100.00
54172;BME280;40076;52.354;4.970;2023-05-07T02:47:58;101664.41;;;15.64;100.00
54172;BME280;40076;52.354;4.970;2023-05-07T02:50:24;101658.97;;;15.64;100.00
54172;BME280;40076;52.354;4.970;2023-05-07T02:52:52;101671.13;;;15.67;100.00
54172;BME280;40076;52.354;4.970;2023-05-07T02:55:21;101675.44;;;15.68;100.00
54172;BME280;40076;52.354;4.970;2023-05-07T02:57:47;101664.56;;;15.68;100.00
54172;BME280;40076;52.354;4.970;2023-05-07T03:00:21;101680.91;;;15.68;100.00
54172;BME280;40076;52.354;4.970;2023-05-07T03:02:49;101675.13;;;15.69;100.00
54172;BME280;40076;52.354;4.970;2023-05-07T03:05:15;101671.59;;;15.69;100.00
54172;BME280;40076;52.354;4.970;2023-05-07T03:07:40;101670.47;;;15.70;100.00
54172;BME280;40076;52.354;4.970;2023-05-07T03:10:12;101670.00;;;15.68;100.00
54172;BME280;40076;52.354;4.970;2023-05-07T03:12:45;101677.06;;;15.69;100.00
54172;BME280;40076;52.354;4.970;2023-05-07T03:15:11;101670.91;;;15.72;100.00
54172;BME280;40076;52.354;4.970;2023-05-07T03:17:43;101664.56;;;15.68;100.00
54172;BME280;40076;52.354;4.970;2023-05-07T03:20:15;101672.72;;;15.68;100.00
54172;BME280;40076;52.354;4.970;2023-05-07T03:22:41;101663.44;;;15.69;100.00
54172;BME280;40076;52.354;4.970;2023-05-07T03:25:13;101661.97;;;15.71;100.00
54172;BME280;40076;52.354;4.970;2023-05-07T03:27:46;101660.50;;;15.74;100.00
54172;BME280;40076;52.354;4.970;2023-05-07T03:30:12;101662.09;;;15.75;100.00
54172;BME280;40076;52.354;4.970;2023-05-07T03:32:37;101660.97;;;15.76;100.00
54172;BME280;40076;52.354;4.970;2023-05-07T03:35:03;101668.00;;;15.77;100.00
54172;BME280;40076;52.354;4.970;2023-05-07T03:37:37;101663.38;;;15.77;100.00
54172;BME280;40076;52.354;4.970;2023-05-07T03:40:03;101652.31;;;15.74;100.00
54172;BME280;40076;52.354;4.970;2023-05-07T03:42:29;101656.06;;;15.69;100.00
54172;BME280;40076;52.354;4.970;2023-05-07T03:44:55;101661.84;;;15.68;100.00
54172;BME280;40076;52.354;4.970;2023-05-07T03:47:23;101647.75;;;15.66;100.00
54172;BME280;40076;52.354;4.970;2023-05-07T03:49:51;101659.91;;;15.68;100.00
54172;BME280;40076;52.354;4.970;2023-05-07T03:52:18;101657.19;;;15.68;100.00
54172;BME280;40076;52.354;4.970;2023-05-07T03:54:52;101656.84;;;15.70;100.00
54172;BME280;40076;52.354;4.970;2023-05-07T03:57:23;101654.31;;;15.65;100.00
54172;BME280;40076;52.354;4.970;2023-05-07T03:59:48;101657.72;;;15.62;100.00
54172;BME280;40076;52.354;4.970;2023-05-07T04:02:16;101659.31;;;15.63;100.00
54172;BME280;40076;52.354;4.970;2023-05-07T04:04:42;101662.03;;;15.63;100.00
54172;BME280;40076;52.354;4.970;2023-05-07T04:07:11;101660.44;;;15.62;100.00
54172;BME280;40076;52.354;4.970;2023-05-07T04:09:44;101672.78;;;15.59;100.00
54172;BME280;40076;52.354;4.970;2023-05-07T04:12:20;101666.06;;;15.57;100.00
54172;BME280;40076;52.354;4.970;2023-05-07T04:14:46;101664.03;;;15.54;100.00
54172;BME280;40076;52.354;4.970;2023-05-07T04:17:15;101670.56;;;15.53;100.00
54172;BME280;40076;52.354;4.970;2023-05-07T04:19:46;101660.00;;;15.51;100.00
54172;BME280;40076;52.354;4.970;2023-05-07T04:22:14;101668.97;;;15.52;100.00
54172;BME280;40076;52.354;4.970;2023-05-07T04:27:25;101669.28;;;15.50;100.00
54172;BME280;40076;52.354;4.970;2023-05-07T04:29:51;101672.34;;;15.49;100.00
54172;BME280;40076;52.354;4.970;2023-05-07T04:32:28;101675.06;;;15.49;100.00
54172;BME280;40076;52.354;4.970;2023-05-07T04:34:57;101680.19;;;15.50;100.00
54172;BME280;40076;52.354;4.970;2023-05-07T04:37:32;101689.16;;;15.51;100.00
54172;BME280;40076;52.354;4.970;2023-05-07T04:39:57;101689.97;;;15.51;100.00
54172;BME280;40076;52.354;4.970;2023-05-07T04:42:26;101681.78;;;15.51;100.00
54172;BME280;40076;52.354;4.970;2023-05-07T04:44:55;101680.19;;;15.50;100.00
54172;BME280;40076;52.354;4.970;2023-05-07T04:47:23;101681.31;;;15.49;100.00
54172;BME280;40076;52.354;4.970;2023-05-07T04:49:51;101679.38;;;15.50;100.00
54172;BME280;40076;52.354;4.970;2023-05-07T04:52:25;101684.84;;;15.50;100.00
54172;BME280;40076;52.354;4.970;2023-05-07T04:54:54;101685.31;;;15.52;100.00
54172;BME280;40076;52.354;4.970;2023-05-07T04:57:19;101688.03;;;15.52;100.00
54172;BME280;40076;52.354;4.970;2023-05-07T04:59:57;101690.75;;;15.52;100.00
54172;BME280;40076;52.354;4.970;2023-05-07T05:02:25;101684.19;;;15.53;100.00
54172;BME280;40076;52.354;4.970;2023-05-07T05:05:03;101685.03;;;15.53;100.00
54172;BME280;40076;52.354;4.970;2023-05-07T05:07:38;101685.50;;;15.55;100.00
54172;BME280;40076;52.354;4.970;2023-05-07T05:10:08;101694.00;;;15.54;100.00
54172;BME280;40076;52.354;4.970;2023-05-07T05:12:40;101687.41;;;15.55;100.00
54172;BME280;40076;52.354;4.970;2023-05-07T05:15:07;101694.78;;;15.54;100.00
54172;BME280;40076;52.354;4.970;2023-05-07T05:17:40;101692.06;;;15.54;100.00
54172;BME280;40076;52.354;4.970;2023-05-07T05:20:12;101688.84;;;15.52;100.00
54172;BME280;40076;52.354;4.970;2023-05-07T05:22:45;101684.50;;;15.51;100.00
54172;BME280;40076;52.354;4.970;2023-05-07T05:25:13;101692.69;;;15.51;100.00
54172;BME280;40076;52.354;4.970;2023-05-07T05:27:41;101695.09;;;15.53;100.00
54172;BME280;40076;52.354;4.970;2023-05-07T05:30:07;101694.00;;;15.54;100.00
54172;BME280;40076;52.354;4.970;2023-05-07T05:32:35;101700.53;;;15.53;100.00
54172;BME280;40076;52.354;4.970;2023-05-07T05:35:13;101706.81;;;15.53;100.00
54172;BME280;40076;52.354;4.970;2023-05-07T05:37:41;101712.25;;;15.53;100.00
54172;BME280;40076;52.354;4.970;2023-05-07T05:40:07;101717.38;;;15.55;100.00
54172;BME280;40076;52.354;4.970;2023-05-07T05:42:32;101715.47;;;15.55;100.00
54172;BME280;40076;52.354;4.970;2023-05-07T05:45:00;101719.78;;;15.56;100.00
54172;BME280;40076;52.354;4.970;2023-05-07T05:47:31;101718.19;;;15.55;100.00
54172;BME280;40076;52.354;4.970;2023-05-07T05:49:57;101726.78;;;15.57;100.00
54172;BME280;40076;52.354;4.970;2023-05-07T05:52:22;101722.94;;;15.58;100.00
54172;BME280;40076;52.354;4.970;2023-05-07T05:54:49;101730.78;;;15.60;100.00
54172;BME280;40076;52.354;4.970;2023-05-07T05:57:14;101727.75;;;15.61;100.00
54172;BME280;40076;52.354;4.970;2023-05-07T05:59:43;101730.16;;;15.63;100.00
54172;BME280;40076;52.354;4.970;2023-05-07T06:02:11;101722.41;;;15.65;100.00
54172;BME280;40076;52.354;4.970;2023-05-07T06:04:39;101722.09;;;15.66;100.00
54172;BME280;40076;52.354;4.970;2023-05-07T06:07:15;101726.75;;;15.66;100.00
54172;BME280;40076;52.354;4.970;2023-05-07T06:09:43;101730.75;;;15.68;100.00
54172;BME280;40076;52.354;4.970;2023-05-07T06:12:36;101730.41;;;15.70;100.00
54172;BME280;40076;52.354;4.970;2023-05-07T06:18:34;101751.22;;;15.74;100.00
54172;BME280;40076;52.354;4.970;2023-05-07T06:37:13;101750.25;;;15.79;100.00
54172;BME280;40076;52.354;4.970;2023-05-07T06:42:43;101762.06;;;15.83;100.00
54172;BME280;40076;52.354;4.970;2023-05-07T06:45:09;101762.53;;;15.85;100.00
54172;BME280;40076;52.354;4.970;2023-05-07T06:47:34;101766.06;;;15.86;100.00
54172;BME280;40076;52.354;4.970;2023-05-07T06:50:00;101764.25;;;15.90;100.00
54172;BME280;40076;52.354;4.970;2023-05-07T06:52:25;101760.06;;;15.92;100.00
54172;BME280;40076;52.354;4.970;2023-05-07T06:54:51;101754.63;;;15.92;100.00
54172;BME280;40076;52.354;4.970;2023-05-07T06:57:16;101753.13;;;15.95;100.00
54172;BME280;40076;52.354;4.970;2023-05-07T06:59:41;101756.34;;;15.97;100.00
54172;BME280;40076;52.354;4.970;2023-05-07T07:02:07;101752.50;;;15.98;100.00
54172;BME280;40076;52.354;4.970;2023-05-07T07:04:33;101756.50;;;16.00;100.00
54172;BME280;40076;52.354;4.970;2023-05-07T07:06:58;101761.25;;;16.03;100.00
54172;BME280;40076;52.354;4.970;2023-05-07T07:09:24;101764.44;;;16.05;100.00
54172;BME280;40076;52.354;4.970;2023-05-07T07:11:49;101768.13;;;16.09;100.00
54172;BME280;40076;52.354;4.970;2023-05-07T07:14:14;101765.50;;;16.13;100.00
54172;BME280;40076;52.354;4.970;2023-05-07T07:16:40;101767.13;;;16.14;100.00
54172;BME280;40076;52.354;4.970;2023-05-07T07:19:06;101765.97;;;16.15;100.00
54172;BME280;40076;52.354;4.970;2023-05-07T07:21:31;101771.91;;;16.17;100.00
54172;BME280;40076;52.354;4.970;2023-05-07T07:23:57;101764.06;;;16.15;100.00
54172;BME280;40076;52.354;4.970;2023-05-07T07:26:22;101763.38;;;16.18;100.00
54172;BME280;40076;52.354;4.970;2023-05-07T07:28:47;101760.66;;;16.18;100.00
54172;BME280;40076;52.354;4.970;2023-05-07T07:31:13;101767.69;;;16.19;100.00
54172;BME280;40076;52.354;4.970;2023-05-07T07:33:38;101763.38;;;16.18;100.00
54172;BME280;40076;52.354;4.970;2023-05-07T07:36:05;101763.84;;;16.20;100.00
54172;BME280;40076;52.354;4.970;2023-05-07T07:38:31;101767.03;;;16.23;100.00
54172;BME280;40076;52.354;4.970;2023-05-07T07:40:57;101763.19;;;16.24;100.00
54172;BME280;40076;52.354;4.970;2023-05-07T07:43:25;101764.78;;;16.25;100.00
54172;BME280;40076;52.354;4.970;2023-05-07T07:45:51;101769.88;;;16.26;100.00
54172;BME280;40076;52.354;4.970;2023-05-07T07:48:16;101772.75;;;16.30;100.00
54172;BME280;40076;52.354;4.970;2023-05-07T07:50:41;101765.47;;;16.34;100.00
54172;BME280;40076;52.354;4.970;2023-05-07T07:53:07;101761.78;;;16.38;100.00
54172;BME280;40076;52.354;4.970;2023-05-07T07:55:32;101767.34;;;16.42;100.00
54172;BME280;40076;52.354;4.970;2023-05-07T07:58:02;101765.56;;;16.46;100.00
54172;BME280;40076;52.354;4.970;2023-05-07T08:00:28;101763.72;;;16.50;100.00
54172;BME280;40076;52.354;4.970;2023-05-07T08:02:53;101768.53;;;16.53;100.00
54172;BME280;40076;52.354;4.970;2023-05-07T08:05:18;101765.47;;;16.54;100.00
54172;BME280;40076;52.354;4.970;2023-05-07T08:07:44;101767.19;;;16.59;100.00
54172;BME280;40076;52.354;4.970;2023-05-07T08:10:09;101775.88;;;16.61;100.00
54172;BME280;40076;52.354;4.970;2023-05-07T08:12:35;101766.56;;;16.62;100.00
54172;BME280;40076;52.354;4.970;2023-05-07T08:15:00;101758.81;;;16.64;100.00
54172;BME280;40076;52.354;4.970;2023-05-07T08:17:25;101776.91;;;16.69;100.00
54172;BME280;40076;52.354;4.970;2023-05-07T08:19:51;101773.84;;;16.70;100.00
54172;BME280;40076;52.354;4.970;2023-05-07T08:22:16;101768.81;;;16.72;100.00
54172;BME280;40076;52.354;4.970;2023-05-07T08:24:46;101770.44;;;16.73;100.00
54172;BME280;40076;52.354;4.970;2023-05-07T08:27:11;101774.41;;;16.76;100.00
54172;BME280;40076;52.354;4.970;2023-05-07T08:29:37;101774.09;;;16.77;100.00
54172;BME280;40076;52.354;4.970;2023-05-07T08:32:02;101771.81;;;16.79;100.00
54172;BME280;40076;52.354;4.970;2023-05-07T08:34:28;101780.13;;;16.83;100.00
54172;BME280;40076;52.354;4.970;2023-05-07T08:36:53;101780.22;;;16.86;100.00
54172;BME280;40076;52.354;4.970;2023-05-07T08:39:18;101780.03;;;16.91;100.00
54172;BME280;40076;52.354;4.970;2023-05-07T08:41:45;101783.34;;;16.97;100.00
54172;BME280;40076;52.354;4.970;2023-05-07T08:44:13;101779.94;;;17.00;100.00
54172;BME280;40076;52.354;4.970;2023-05-07T08:46:44;101784.38;;;17.05;100.00
54172;BME280;40076;52.354;4.970;2023-05-07T08:56:15;101795.78;;;17.31;100.00
54172;BME280;40076;52.354;4.970;2023-05-07T08:58:46;101787.69;;;17.34;100.00
54172;BME280;40076;52.354;4.970;2023-05-07T09:32:02;101777.66;;;18.27;100.00
54172;BME280;40076;52.354;4.970;2023-05-07T09:34:31;101782.53;;;18.34;100.00
54172;BME280;40076;52.354;4.970;2023-05-07T09:37:04;101777.25;;;18.41;100.00
54172;BME280;40076;52.354;4.970;2023-05-07T09:39:43;101771.63;;;18.49;100.00
54172;BME280;40076;52.354;4.970;2023-05-07T09:42:12;101771.75;;;18.53;100.00
54172;BME280;40076;52.354;4.970;2023-05-07T09:44:46;101778.13;;;18.57;100.00
54172;BME280;40076;52.354;4.970;2023-05-07T09:47:18;101776.63;;;18.60;100.00
54172;BME280;40076;52.354;4.970;2023-05-07T09:49:58;101782.31;;;18.67;100.00
54172;BME280;40076;52.354;4.970;2023-05-07T09:52:28;101774.16;;;18.70;100.00
54172;BME280;40076;52.354;4.970;2023-05-07T09:55:06;101782.56;;;18.77;100.00
54172;BME280;40076;52.354;4.970;2023-05-07T09:57:55;101781.53;;;18.82;100.00
54172;BME280;40076;52.354;4.970;2023-05-07T10:00:48;101774.28;;;18.89;100.00
54172;BME280;40076;52.354;4.970;2023-05-07T10:03:23;101773.22;;;18.94;100.00
54172;BME280;40076;52.354;4.970;2023-05-07T10:05:50;101774.91;;;18.99;100.00
54172;BME280;40076;52.354;4.970;2023-05-07T10:08:18;101773.75;;;19.00;100.00
54172;BME280;40076;52.354;4.970;2023-05-07T10:10:48;101770.31;;;19.03;100.00
54172;BME280;40076;52.354;4.970;2023-05-07T10:13:18;101776.69;;;19.07;100.00
54172;BME280;40076;52.354;4.970;2023-05-07T10:15:49;101779.16;;;19.12;100.00
54172;BME280;40076;52.354;4.970;2023-05-07T10:18:18;101777.28;;;19.16;100.00
54172;BME280;40076;52.354;4.970;2023-05-07T10:20:48;101777.84;;;19.21;100.00
54172;BME280;40076;52.354;4.970;2023-05-07T10:23:21;101779.06;;;19.24;100.00
54172;BME280;40076;52.354;4.970;2023-05-07T10:25:48;101790.13;;;19.27;100.00
54172;BME280;40076;52.354;4.970;2023-05-07T10:28:18;101788.53;;;19.26;100.00
54172;BME280;40076;52.354;4.970;2023-05-07T10:33:48;101783.56;;;19.32;100.00
54172;BME280;40076;52.354;4.970;2023-05-07T10:36:14;101788.25;;;19.32;100.00
54172;BME280;40076;52.354;4.970;2023-05-07T10:38:43;101790.28;;;19.35;100.00
54172;BME280;40076;52.354;4.970;2023-05-07T10:41:11;101797.78;;;19.38;100.00
54172;BME280;40076;52.354;4.970;2023-05-07T10:43:41;101791.94;;;19.39;100.00
54172;BME280;40076;52.354;4.970;2023-05-07T10:46:18;101783.81;;;19.43;100.00
54172;BME280;40076;52.354;4.970;2023-05-07T10:51:29;101794.19;;;19.49;100.00
54172;BME280;40076;52.354;4.970;2023-05-07T10:56:42;101788.44;;;19.54;100.00
54172;BME280;40076;52.354;4.970;2023-05-07T11:01:56;101791.25;;;19.58;100.00
54172;BME280;40076;52.354;4.970;2023-05-07T11:04:23;101782.31;;;19.61;100.00
54172;BME280;40076;52.354;4.970;2023-05-07T11:10:00;101786.09;;;19.72;100.00
54172;BME280;40076;52.354;4.970;2023-05-07T11:15:05;101784.94;;;19.73;100.00
54172;BME280;40076;52.354;4.970;2023-05-07T11:17:31;101784.16;;;19.73;100.00
54172;BME280;40076;52.354;4.970;2023-05-07T11:20:00;101787.75;;;19.77;100.00
54172;BME280;40076;52.354;4.970;2023-05-07T11:25:03;101791.75;;;19.79;100.00
54172;BME280;40076;52.354;4.970;2023-05-07T11:27:29;101790.94;;;19.79;100.00
54172;BME280;40076;52.354;4.970;2023-05-07T11:29:55;101789.78;;;19.80;100.00
54172;BME280;40076;52.354;4.970;2023-05-07T11:32:24;101798.81;;;19.80;100.00
54172;BME280;40076;52.354;4.970;2023-05-07T11:34:53;101794.94;;;19.81;100.00
54172;BME280;40076;52.354;4.970;2023-05-07T11:37:21;101795.00;;;19.85;100.00
54172;BME280;40076;52.354;4.970;2023-05-07T11:39:47;101799.78;;;19.88;100.00
54172;BME280;40076;52.354;4.970;2023-05-07T11:44:50;101804.63;;;19.94;100.00
54172;BME280;40076;52.354;4.970;2023-05-07T11:47:19;101800.38;;;19.97;100.00
54172;BME280;40076;52.354;4.970;2023-05-07T11:49:49;101801.16;;;19.97;100.00
54172;BME280;40076;52.354;4.970;2023-05-07T11:52:19;101796.47;;;19.98;100.00
54172;BME280;40076;52.354;4.970;2023-05-07T11:54:55;101797.28;;;19.98;100.00
54172;BME280;40076;52.354;4.970;2023-05-07T11:57:22;101793.34;;;19.99;100.00
54172;BME280;40076;52.354;4.970;2023-05-07T11:59:52;101793.72;;;19.98;100.00
54172;BME280;40076;52.354;4.970;2023-05-07T12:02:18;101794.94;;;20.00;100.00
54172;BME280;40076;52.354;4.970;2023-05-07T12:04:44;101793.78;;;20.01;100.00
54172;BME280;40076;52.354;4.970;2023-05-07T12:07:13;101795.03;;;20.04;100.00
54172;BME280;40076;52.354;4.970;2023-05-07T12:09:45;101797.41;;;20.06;100.00
54172;BME280;40076;52.354;4.970;2023-05-07T12:12:11;101795.09;;;20.08;100.00
54172;BME280;40076;52.354;4.970;2023-05-07T12:14:43;101797.47;;;20.09;100.00
54172;BME280;40076;52.354;4.970;2023-05-07T12:17:10;101793.22;;;20.12;100.00
54172;BME280;40076;52.354;4.970;2023-05-07T12:19:38;101802.69;;;20.14;100.00
54172;BME280;40076;52.354;4.970;2023-05-07T12:22:07;101798.78;;;20.15;100.00
54172;BME280;40076;52.354;4.970;2023-05-07T12:25:02;101795.31;;;20.18;100.00
54172;BME280;40076;52.354;4.970;2023-05-07T12:27:28;101798.88;;;20.19;100.00
54172;BME280;40076;52.354;4.970;2023-05-07T12:29:53;101795.31;;;20.18;100.00
54172;BME280;40076;52.354;4.970;2023-05-07T12:32:20;101797.72;;;20.20;100.00
54172;BME280;40076;52.354;4.970;2023-05-07T12:34:50;101794.63;;;20.21;100.00
54172;BME280;40076;52.354;4.970;2023-05-07T12:37:16;101792.38;;;20.27;100.00
54172;BME280;40076;52.354;4.970;2023-05-07T12:39:47;101793.22;;;20.31;100.00
54172;BME280;40076;52.354;4.970;2023-05-07T12:42:19;101791.75;;;20.33;100.00
54172;BME280;40076;52.354;4.970;2023-05-07T12:48:01;101801.28;;;20.39;100.00
54172;BME280;40076;52.354;4.970;2023-05-07T12:50:38;101799.31;;;20.40;100.00
54172;BME280;40076;52.354;4.970;2023-05-07T12:53:13;101801.34;;;20.43;100.00
54172;BME280;40076;52.354;4.970;2023-05-07T12:55:48;101803.34;;;20.46;100.00
54172;BME280;40076;52.354;4.970;2023-05-07T12:58:24;101800.25;;;20.48;100.00
54172;BME280;40076;52.354;4.970;2023-05-07T13:01:01;101803.09;;;20.51;100.00
54172;BME280;40076;52.354;4.970;2023-05-07T13:07:08;101806.63;;;20.52;100.00
54172;BME280;40076;52.354;4.970;2023-05-07T13:09:45;101805.88;;;20.55;100.00
54172;BME280;40076;52.354;4.970;2023-05-07T13:12:18;101811.59;;;20.46;100.00
54172;BME280;40076;52.354;4.970;2023-05-07T13:14:47;101810.00;;;20.45;100.00
54172;BME280;40076;52.354;4.970;2023-05-07T13:21:07;101814.44;;;20.50;100.00
54172;BME280;40076;52.354;4.970;2023-05-07T13:23:33;101817.16;;;20.50;100.00
54172;BME280;40076;52.354;4.970;2023-05-07T13:26:02;101818.38;;;20.52;100.00
54172;BME280;40076;52.354;4.970;2023-05-07T13:28:36;101827.00;;;20.51;100.00
54172;BME280;40076;52.354;4.970;2023-05-07T13:31:17;101821.88;;;20.49;100.00
54172;BME280;40076;52.354;4.970;2023-05-07T13:34:29;101824.16;;;20.47;100.00
54172;BME280;40076;52.354;4.970;2023-05-07T13:37:23;101826.13;;;20.47;100.00
54172;BME280;40076;52.354;4.970;2023-05-07T13:40:20;101822.53;;;20.42;100.00
54172;BME280;40076;52.354;4.970;2023-05-07T13:43:11;101823.59;;;20.38;100.00
54172;BME280;40076;52.354;4.970;2023-05-07T13:45:47;101825.13;;;20.35;100.00
54172;BME280;40076;52.354;4.970;2023-05-07T13:48:27;101821.47;;;20.31;100.00
54172;BME280;40076;52.354;4.970;2023-05-07T13:51:48;101809.19;;;20.25;100.00
54172;BME280;40076;52.354;4.970;2023-05-07T14:05:06;101839.59;;;20.17;100.00
54172;BME280;40076;52.354;4.970;2023-05-07T14:07:34;101844.28;;;20.16;100.00
54172;BME280;40076;52.354;4.970;2023-05-07T14:10:02;101851.72;;;20.16;100.00
54172;BME280;40076;52.354;4.970;2023-05-07T14:12:28;101847.38;;;20.15;100.00
54172;BME280;40076;52.354;4.970;2023-05-07T14:14:53;101860.59;;;20.09;100.00
54172;BME280;40076;52.354;4.970;2023-05-07T14:17:19;101867.88;;;20.01;100.00
54172;BME280;40076;52.354;4.970;2023-05-07T14:19:45;101867.81;;;19.98;100.00
54172;BME280;40076;52.354;4.970;2023-05-07T14:22:31;101869.03;;;19.85;100.00
54172;BME280;40076;52.354;4.970;2023-05-07T14:24:59;101874.53;;;19.85;100.00
54172;BME280;40076;52.354;4.970;2023-05-07T14:27:25;101872.41;;;19.78;100.00
54172;BME280;40076;52.354;4.970;2023-05-07T14:29:50;101880.47;;;19.71;100.00
54172;BME280;40076;52.354;4.970;2023-05-07T14:32:19;101875.53;;;19.61;100.00
54172;BME280;40076;52.354;4.970;2023-05-07T14:34:45;101875.63;;;19.49;100.00
54172;BME280;40076;52.354;4.970;2023-05-07T14:37:14;101892.22;;;19.40;100.00
54172;BME280;40076;52.354;4.970;2023-05-07T14:39:40;101892.84;;;19.34;100.00
54172;BME280;40076;52.354;4.970;2023-05-07T14:42:05;101896.63;;;19.29;100.00
54172;BME280;40076;52.354;4.970;2023-05-07T14:44:33;101907.03;;;19.23;100.00